createdAt,value
2022-08-19T00:00:09.110Z,18.71
2022-08-19T00:01:09.092Z,18.65
2022-08-19T00:02:09.098Z,18.69
2022-08-19T00:03:09.078Z,18.62
2022-08-19T00:04:10.105Z,18.66
2022-08-19T00:05:09.149Z,18.62
2022-08-19T00:06:09.631Z,18.57
2022-08-19T00:07:09.028Z,18.66
2022-08-19T00:08:09.047Z,18.68
2022-08-19T00:09:09.021Z,18.56
2022-08-19T00:10:09.631Z,18.68
2022-08-19T00:11:08.986Z,18.60
2022-08-19T00:12:09.980Z,18.60
2022-08-19T00:13:08.981Z,18.68
2022-08-19T00:14:08.953Z,18.66
2022-08-19T00:15:08.992Z,18.65
2022-08-19T00:16:08.925Z,18.68
2022-08-19T00:17:08.915Z,18.62
2022-08-19T00:18:08.916Z,18.75
2022-08-19T00:19:08.895Z,18.72
2022-08-19T00:20:08.891Z,18.69
2022-08-19T00:21:08.917Z,18.68
2022-08-19T00:22:08.875Z,18.64
2022-08-19T00:23:08.849Z,18.65
2022-08-19T00:24:08.849Z,18.64
2022-08-19T00:25:08.836Z,18.54
2022-08-19T00:26:08.826Z,18.51
2022-08-19T00:27:25.892Z,18.51
2022-08-19T00:28:09.813Z,18.51
2022-08-19T00:29:09.631Z,18.51
2022-08-19T00:30:12.660Z,18.46
2022-08-19T00:31:08.763Z,18.50
2022-08-19T00:32:10.740Z,18.41
2022-08-19T00:33:08.720Z,18.44
2022-08-19T00:34:12.146Z,18.42
2022-08-19T00:35:08.715Z,18.47
2022-08-19T00:36:08.716Z,18.36
2022-08-19T00:37:08.698Z,18.38
2022-08-19T00:38:08.695Z,18.44
2022-08-19T00:39:08.687Z,18.39
2022-08-19T00:40:11.664Z,18.34
2022-08-19T00:41:11.633Z,18.41
2022-08-19T00:42:09.712Z,18.36
2022-08-19T00:43:08.649Z,18.35
2022-08-19T00:44:08.618Z,18.41
2022-08-19T00:45:08.606Z,18.36
2022-08-19T00:46:08.608Z,18.36
2022-08-19T00:47:14.077Z,18.47
2022-08-19T00:48:14.919Z,18.44
2022-08-19T00:49:09.560Z,18.41
2022-08-19T00:50:08.551Z,18.38
2022-08-19T00:51:08.561Z,18.38
2022-08-19T00:52:08.538Z,18.35
2022-08-19T00:53:08.520Z,18.35
2022-08-19T00:54:08.518Z,18.34
2022-08-19T00:55:08.506Z,18.26
2022-08-19T00:56:08.482Z,18.32
2022-08-19T00:57:08.486Z,18.35
2022-08-19T00:58:08.471Z,18.29
2022-08-19T00:59:11.124Z,18.29
2022-08-19T01:00:08.443Z,18.23
2022-08-19T01:01:08.507Z,18.21
2022-08-19T01:02:11.147Z,18.21
2022-08-19T01:03:08.408Z,18.23
2022-08-19T01:04:08.406Z,18.19
2022-08-19T01:05:08.384Z,18.10
2022-08-19T01:06:08.384Z,18.17
2022-08-19T01:07:08.391Z,18.07
2022-08-19T01:08:09.143Z,18.02
2022-08-19T01:09:08.450Z,18.04
2022-08-19T01:10:08.379Z,17.99
2022-08-19T01:11:09.142Z,18.04
2022-08-19T01:12:09.143Z,18.01
2022-08-19T01:13:11.141Z,18.01
2022-08-19T01:14:08.299Z,18.04
2022-08-19T01:15:08.282Z,18.05
2022-08-19T01:16:08.282Z,18.01
2022-08-19T01:17:09.153Z,17.99
2022-08-19T01:18:08.279Z,17.92
2022-08-19T01:19:08.252Z,17.91
2022-08-19T01:20:08.229Z,17.91
2022-08-19T01:21:08.217Z,17.95
2022-08-19T01:22:14.328Z,17.92
2022-08-19T01:23:09.214Z,17.92
2022-08-19T01:24:08.188Z,17.92
2022-08-19T01:25:08.866Z,17.89
2022-08-19T01:26:09.166Z,17.92
2022-08-19T01:27:08.146Z,17.86
2022-08-19T01:28:10.889Z,17.87
2022-08-19T01:29:09.172Z,17.94
2022-08-19T01:30:08.651Z,17.95
2022-08-19T01:31:08.377Z,17.95
2022-08-19T01:32:08.102Z,17.95
2022-08-19T01:33:09.093Z,17.95
2022-08-19T01:34:08.090Z,17.84
2022-08-19T01:35:08.075Z,17.91
2022-08-19T01:36:08.045Z,17.92
2022-08-19T01:37:08.040Z,17.92
2022-08-19T01:38:08.647Z,17.89
2022-08-19T01:39:08.164Z,17.87
2022-08-19T01:40:09.519Z,17.89
2022-08-19T01:41:10.842Z,17.94
2022-08-19T01:42:10.644Z,17.92
2022-08-19T01:43:08.006Z,17.92
2022-08-19T01:44:18.081Z,17.87
2022-08-19T01:45:08.954Z,17.87
2022-08-19T01:46:07.941Z,17.92
2022-08-19T01:47:07.946Z,17.89
2022-08-19T01:48:07.935Z,17.84
2022-08-19T01:49:07.905Z,17.79
2022-08-19T01:50:07.901Z,17.79
2022-08-19T01:51:07.890Z,17.80
2022-08-19T01:52:07.893Z,17.74
2022-08-19T01:53:08.028Z,17.80
2022-08-19T01:54:07.867Z,17.79
2022-08-19T01:55:07.842Z,17.84
2022-08-19T01:56:07.828Z,17.81
2022-08-19T01:57:07.843Z,17.77
2022-08-19T01:58:07.810Z,17.79
2022-08-19T01:59:07.808Z,17.71
2022-08-19T02:00:07.793Z,17.74
2022-08-19T02:01:07.862Z,17.70
2022-08-19T02:02:13.175Z,17.74
2022-08-19T02:03:07.754Z,17.79
2022-08-19T02:04:07.777Z,17.73
2022-08-19T02:05:10.774Z,17.68
2022-08-19T02:06:07.727Z,17.70
2022-08-19T02:07:07.714Z,17.70
2022-08-19T02:08:07.704Z,17.55
2022-08-19T02:09:07.684Z,17.49
2022-08-19T02:10:08.917Z,17.47
2022-08-19T02:11:07.661Z,17.47
2022-08-19T02:12:07.677Z,17.46
2022-08-19T02:13:08.147Z,17.49
2022-08-19T02:14:08.173Z,17.42
2022-08-19T02:15:07.651Z,17.47
2022-08-19T02:16:07.612Z,17.47
2022-08-19T02:17:07.616Z,17.42
2022-08-19T02:18:07.618Z,17.39
2022-08-19T02:19:07.581Z,17.46
2022-08-19T02:20:10.159Z,17.36
2022-08-19T02:21:07.565Z,17.39
2022-08-19T02:22:07.558Z,17.38
2022-08-19T02:23:13.540Z,17.46
2022-08-19T02:24:08.671Z,17.39
2022-08-19T02:25:07.547Z,17.40
2022-08-19T02:26:07.499Z,17.49
2022-08-19T02:27:07.473Z,17.47
2022-08-19T02:28:07.481Z,17.51
2022-08-19T02:29:07.476Z,17.43
2022-08-19T02:30:07.491Z,17.47
2022-08-19T02:31:08.148Z,17.51
2022-08-19T02:32:08.501Z,17.45
2022-08-19T02:33:08.143Z,17.46
2022-08-19T02:34:08.430Z,17.62
2022-08-19T02:35:11.996Z,17.47
2022-08-19T02:36:08.409Z,17.47
2022-08-19T02:37:07.407Z,17.49
2022-08-19T02:38:07.385Z,17.51
2022-08-19T02:39:14.147Z,17.51
2022-08-19T02:40:12.317Z,17.53
2022-08-19T02:41:08.343Z,17.54
2022-08-19T02:42:07.339Z,17.58
2022-08-19T02:43:07.339Z,17.43
2022-08-19T02:44:26.327Z,17.53
2022-08-19T02:45:08.298Z,17.51
2022-08-19T02:46:07.293Z,17.54
2022-08-19T02:47:07.298Z,17.54
2022-08-19T02:48:14.879Z,17.53
2022-08-19T02:49:09.176Z,17.46
2022-08-19T02:50:08.154Z,17.49
2022-08-19T02:51:07.249Z,17.42
2022-08-19T02:52:07.246Z,17.45
2022-08-19T02:53:14.147Z,17.47
2022-08-19T02:54:08.227Z,17.39
2022-08-19T02:55:07.213Z,17.40
2022-08-19T02:56:11.185Z,17.36
2022-08-19T02:57:07.168Z,17.27
2022-08-19T02:58:08.203Z,17.24
2022-08-19T02:59:07.151Z,17.12
2022-08-19T03:00:07.666Z,17.15
2022-08-19T03:01:07.204Z,17.09
2022-08-19T03:02:07.658Z,16.95
2022-08-19T03:03:07.104Z,16.88
2022-08-19T03:04:07.093Z,16.88
2022-08-19T03:05:07.082Z,16.84
2022-08-19T03:06:07.081Z,16.81
2022-08-19T03:07:11.161Z,16.72
2022-08-19T03:08:07.654Z,16.78
2022-08-19T03:09:07.042Z,16.75
2022-08-19T03:10:07.036Z,16.77
2022-08-19T03:11:08.072Z,16.84
2022-08-19T03:12:07.183Z,16.78
2022-08-19T03:13:06.994Z,16.80
2022-08-19T03:14:06.987Z,16.87
2022-08-19T03:15:06.976Z,16.95
2022-08-19T03:16:06.953Z,16.96
2022-08-19T03:17:06.955Z,16.99
2022-08-19T03:18:07.182Z,17.02
2022-08-19T03:19:06.931Z,17.05
2022-08-19T03:20:09.658Z,17.17
2022-08-19T03:21:06.932Z,17.10
2022-08-19T03:22:06.904Z,17.15
2022-08-19T03:23:06.874Z,17.15
2022-08-19T03:24:06.880Z,17.17
2022-08-19T03:25:06.866Z,17.25
2022-08-19T03:26:15.795Z,17.27
2022-08-19T03:27:07.837Z,17.33
2022-08-19T03:28:06.832Z,17.25
2022-08-19T03:29:06.828Z,17.24
2022-08-19T03:30:06.844Z,17.33
2022-08-19T03:31:41.742Z,17.32
2022-08-19T03:32:07.779Z,17.28
2022-08-19T03:33:07.767Z,17.27
2022-08-19T03:34:06.753Z,17.32
2022-08-19T03:35:07.687Z,17.27
2022-08-19T03:36:06.745Z,17.24
2022-08-19T03:37:06.733Z,17.30
2022-08-19T03:38:06.708Z,17.25
2022-08-19T03:39:06.712Z,17.30
2022-08-19T03:40:06.854Z,17.33
2022-08-19T03:41:06.689Z,17.24
2022-08-19T03:42:32.082Z,17.25
2022-08-19T03:43:07.663Z,17.25
2022-08-19T03:44:06.650Z,17.27
2022-08-19T03:45:07.673Z,17.25
2022-08-19T03:46:06.631Z,17.25
2022-08-19T03:47:06.623Z,17.24
2022-08-19T03:48:06.621Z,17.20
2022-08-19T03:49:09.169Z,17.22
2022-08-19T03:50:06.583Z,17.20
2022-08-19T03:51:06.574Z,17.18
2022-08-19T03:52:06.584Z,17.15
2022-08-19T03:53:06.552Z,17.20
2022-08-19T03:54:06.559Z,17.15
2022-08-19T03:55:06.695Z,17.20
2022-08-19T03:56:06.510Z,17.14
2022-08-19T03:57:06.529Z,17.17
2022-08-19T03:58:06.498Z,17.17
2022-08-19T03:59:06.486Z,17.17
2022-08-19T04:00:13.234Z,17.12
2022-08-19T04:01:07.523Z,17.12
2022-08-19T04:02:07.161Z,17.07
2022-08-19T04:03:06.439Z,17.18
2022-08-19T04:04:06.441Z,17.12
2022-08-19T04:05:06.416Z,16.99
2022-08-19T04:06:06.408Z,17.05
2022-08-19T04:07:06.688Z,17.07
2022-08-19T04:08:08.666Z,17.10
2022-08-19T04:09:07.378Z,16.95
2022-08-19T04:10:06.363Z,16.92
2022-08-19T04:11:06.389Z,17.03
2022-08-19T04:12:06.346Z,16.99
2022-08-19T04:13:06.359Z,17.00
2022-08-19T04:14:07.160Z,17.00
2022-08-19T04:15:06.307Z,17.02
2022-08-19T04:16:06.305Z,16.99
2022-08-19T04:17:06.320Z,16.96
2022-08-19T04:18:06.272Z,16.96
2022-08-19T04:19:06.276Z,16.98
2022-08-19T04:20:07.077Z,16.98
2022-08-19T04:21:07.175Z,16.96
2022-08-19T04:22:06.235Z,17.00
2022-08-19T04:23:06.248Z,16.99
2022-08-19T04:24:06.206Z,17.06
2022-08-19T04:25:06.205Z,17.06
2022-08-19T04:26:09.300Z,17.03
2022-08-19T04:27:06.186Z,17.03
2022-08-19T04:28:06.191Z,17.06
2022-08-19T04:29:10.426Z,17.02
2022-08-19T04:30:07.180Z,17.02
2022-08-19T04:31:06.134Z,17.00
2022-08-19T04:32:09.084Z,16.98
2022-08-19T04:33:06.126Z,17.00
2022-08-19T04:34:06.140Z,17.05
2022-08-19T04:35:16.986Z,17.03
2022-08-19T04:36:07.083Z,17.07
2022-08-19T04:37:06.096Z,17.09
2022-08-19T04:38:06.067Z,17.05
2022-08-19T04:39:06.055Z,17.05
2022-08-19T04:40:06.122Z,17.09
2022-08-19T04:41:06.026Z,17.02
2022-08-19T04:42:06.028Z,17.10
2022-08-19T04:43:06.014Z,17.10
2022-08-19T04:44:05.991Z,17.09
2022-08-19T04:45:05.988Z,17.07
2022-08-19T04:46:05.966Z,17.05
2022-08-19T04:47:11.020Z,17.12
2022-08-19T04:48:26.393Z,17.07
2022-08-19T04:49:13.237Z,17.07
2022-08-19T04:50:06.929Z,17.06
2022-08-19T04:51:05.925Z,17.06
2022-08-19T04:52:05.902Z,17.02
2022-08-19T04:53:05.919Z,17.02
2022-08-19T04:54:05.878Z,17.10
2022-08-19T04:55:05.866Z,17.12
2022-08-19T04:56:05.864Z,17.10
2022-08-19T04:57:05.850Z,17.14
2022-08-19T04:58:05.862Z,17.09
2022-08-19T04:59:05.844Z,17.07
2022-08-19T05:00:05.819Z,17.15
2022-08-19T05:01:05.860Z,17.10
2022-08-19T05:02:05.851Z,17.15
2022-08-19T05:03:07.688Z,17.17
2022-08-19T05:04:05.772Z,17.21
2022-08-19T05:05:06.669Z,17.20
2022-08-19T05:06:05.754Z,17.17
2022-08-19T05:07:05.723Z,17.17
2022-08-19T05:08:05.739Z,17.17
2022-08-19T05:09:06.081Z,17.20
2022-08-19T05:10:06.689Z,17.20
2022-08-19T05:11:06.742Z,17.18
2022-08-19T05:12:05.684Z,17.17
2022-08-19T05:13:05.676Z,17.15
2022-08-19T05:14:05.685Z,17.15
2022-08-19T05:15:06.168Z,17.30
2022-08-19T05:16:05.638Z,17.32
2022-08-19T05:17:26.196Z,17.35
2022-08-19T05:18:06.630Z,17.40
2022-08-19T05:19:05.608Z,17.40
2022-08-19T05:20:05.603Z,17.43
2022-08-19T05:21:05.595Z,17.43
2022-08-19T05:22:05.569Z,17.40
2022-08-19T05:23:10.260Z,17.49
2022-08-19T05:24:06.564Z,17.51
2022-08-19T05:25:12.639Z,17.57
2022-08-19T05:26:07.176Z,17.58
2022-08-19T05:27:05.519Z,17.68
2022-08-19T05:28:05.541Z,17.58
2022-08-19T05:29:05.496Z,17.65
2022-08-19T05:30:05.488Z,17.73
2022-08-19T05:31:05.485Z,17.70
2022-08-19T05:32:05.469Z,17.83
2022-08-19T05:33:05.476Z,17.71
2022-08-19T05:34:05.455Z,17.80
2022-08-19T05:35:06.426Z,17.91
2022-08-19T05:36:05.428Z,17.80
2022-08-19T05:37:05.417Z,17.83
2022-08-19T05:38:05.426Z,17.91
2022-08-19T05:39:05.405Z,17.95
2022-08-19T05:40:05.491Z,18.02
2022-08-19T05:41:05.383Z,18.02
2022-08-19T05:42:05.390Z,18.02
2022-08-19T05:43:05.350Z,18.02
2022-08-19T05:44:05.334Z,18.13
2022-08-19T05:45:05.355Z,18.14
2022-08-19T05:46:05.328Z,18.01
2022-08-19T05:47:05.307Z,18.16
2022-08-19T05:48:05.284Z,18.25
2022-08-19T05:49:05.291Z,18.19
2022-08-19T05:50:05.344Z,18.28
2022-08-19T05:51:05.329Z,18.26
2022-08-19T05:52:05.254Z,18.34
2022-08-19T05:53:05.236Z,18.36
2022-08-19T05:54:05.225Z,18.28
2022-08-19T05:55:05.219Z,18.39
2022-08-19T05:56:05.200Z,18.38
2022-08-19T05:57:05.221Z,18.44
2022-08-19T05:58:05.179Z,18.44
2022-08-19T05:59:05.180Z,18.59
2022-08-19T06:00:05.258Z,18.56
2022-08-19T06:01:05.170Z,18.60
2022-08-19T06:02:05.149Z,18.68
2022-08-19T06:03:12.451Z,18.71
2022-08-19T06:04:06.111Z,18.72
2022-08-19T06:05:05.215Z,18.66
2022-08-19T06:06:05.093Z,18.75
2022-08-19T06:07:12.656Z,18.71
2022-08-19T06:08:06.084Z,18.75
2022-08-19T06:09:05.067Z,18.79
2022-08-19T06:10:05.046Z,18.75
2022-08-19T06:11:05.043Z,18.84
2022-08-19T06:12:05.024Z,18.87
2022-08-19T06:13:05.048Z,18.86
2022-08-19T06:14:05.009Z,18.78
2022-08-19T06:15:04.995Z,18.86
2022-08-19T06:16:04.982Z,18.93
2022-08-19T06:17:07.320Z,18.79
2022-08-19T06:18:04.958Z,18.91
2022-08-19T06:19:04.974Z,18.93
2022-08-19T06:20:04.933Z,18.89
2022-08-19T06:21:04.947Z,18.89
2022-08-19T06:22:04.927Z,18.97
2022-08-19T06:23:04.921Z,18.94
2022-08-19T06:24:04.927Z,18.97
2022-08-19T06:25:04.915Z,18.99
2022-08-19T06:26:04.875Z,18.96
2022-08-19T06:27:04.862Z,19.07
2022-08-19T06:28:15.179Z,19.12
2022-08-19T06:29:05.834Z,19.12
2022-08-19T06:30:04.839Z,19.13
2022-08-19T06:31:04.833Z,19.20
2022-08-19T06:32:04.810Z,19.17
2022-08-19T06:33:04.808Z,19.20
2022-08-19T06:34:04.785Z,19.17
2022-08-19T06:35:04.790Z,19.28
2022-08-19T06:36:04.769Z,19.27
2022-08-19T06:37:04.754Z,19.30
2022-08-19T06:38:04.749Z,19.35
2022-08-19T06:39:04.739Z,19.39
2022-08-19T06:40:04.823Z,19.47
2022-08-19T06:41:07.771Z,19.43
2022-08-19T06:42:04.722Z,19.45
2022-08-19T06:43:05.701Z,19.52
2022-08-19T06:44:04.704Z,19.65
2022-08-19T06:45:09.475Z,19.65
2022-08-19T06:46:05.910Z,19.76
2022-08-19T06:47:14.369Z,19.76
2022-08-19T06:48:05.637Z,19.83
2022-08-19T06:49:04.642Z,19.72
2022-08-19T06:50:05.257Z,19.75
2022-08-19T06:51:04.624Z,19.78
2022-08-19T06:52:04.589Z,19.85
2022-08-19T06:53:04.834Z,19.80
2022-08-19T06:54:04.567Z,19.85
2022-08-19T06:55:06.402Z,19.82
2022-08-19T06:56:04.546Z,19.86
2022-08-19T06:57:04.560Z,19.87
2022-08-19T06:58:04.538Z,19.90
2022-08-19T06:59:04.526Z,20.00
2022-08-19T07:00:04.509Z,19.98
2022-08-19T07:01:07.162Z,20.07
2022-08-19T07:02:04.483Z,20.13
2022-08-19T07:03:07.969Z,20.01
2022-08-19T07:04:04.474Z,19.92
2022-08-19T07:05:04.458Z,19.95
2022-08-19T07:06:07.152Z,19.94
2022-08-19T07:07:19.557Z,19.94
2022-08-19T07:08:05.417Z,20.05
2022-08-19T07:09:04.430Z,19.83
2022-08-19T07:10:06.218Z,19.86
2022-08-19T07:11:04.467Z,19.86
2022-08-19T07:12:06.937Z,19.87
2022-08-19T07:13:04.375Z,19.94
2022-08-19T07:14:04.354Z,19.94
2022-08-19T07:15:04.347Z,19.90
2022-08-19T07:16:05.599Z,19.95
2022-08-19T07:17:04.357Z,20.07
2022-08-19T07:18:04.315Z,20.10
2022-08-19T07:19:11.849Z,20.13
2022-08-19T07:20:09.490Z,20.22
2022-08-19T07:21:04.281Z,20.23
2022-08-19T07:22:04.266Z,20.33
2022-08-19T07:23:07.175Z,20.33
2022-08-19T07:24:06.778Z,20.34
2022-08-19T07:25:04.239Z,20.17
2022-08-19T07:27:04.252Z,20.08
2022-08-19T07:28:05.203Z,20.12
2022-08-19T07:29:04.201Z,20.13
2022-08-19T07:30:04.176Z,20.20
2022-08-19T07:31:04.186Z,20.25
2022-08-19T07:32:04.162Z,20.19
2022-08-19T07:33:04.170Z,20.10
2022-08-19T07:34:04.132Z,20.20
2022-08-19T07:35:04.208Z,20.30
2022-08-19T07:36:04.106Z,20.46
2022-08-19T07:37:04.105Z,20.42
2022-08-19T07:38:04.102Z,20.53
2022-08-19T07:39:04.113Z,20.48
2022-08-19T07:40:04.206Z,20.58
2022-08-19T07:41:04.062Z,20.60
2022-08-19T07:42:04.049Z,20.72
2022-08-19T07:43:04.030Z,20.79
2022-08-19T07:44:04.061Z,20.78
2022-08-19T07:45:04.017Z,20.91
2022-08-19T07:46:04.053Z,20.91
2022-08-19T07:47:03.993Z,20.94
2022-08-19T07:48:04.449Z,21.06
2022-08-19T07:49:03.973Z,21.06
2022-08-19T07:50:03.973Z,21.21
2022-08-19T07:51:03.947Z,21.19
2022-08-19T07:52:03.930Z,21.24
2022-08-19T07:53:03.930Z,21.26
2022-08-19T07:54:03.906Z,21.31
2022-08-19T07:55:03.927Z,21.22
2022-08-19T07:56:03.911Z,21.28
2022-08-19T07:57:03.881Z,21.37
2022-08-19T07:58:03.864Z,21.31
2022-08-19T07:59:03.849Z,21.36
2022-08-19T08:00:03.845Z,21.43
2022-08-19T08:01:03.840Z,21.49
2022-08-19T08:02:03.960Z,21.58
2022-08-19T08:03:03.826Z,21.58
2022-08-19T08:04:03.789Z,21.58
2022-08-19T08:05:03.791Z,21.73
2022-08-19T08:06:03.787Z,21.86
2022-08-19T08:07:03.770Z,21.86
2022-08-19T08:08:03.755Z,21.81
2022-08-19T08:09:03.749Z,21.94
2022-08-19T08:10:03.878Z,21.99
2022-08-19T08:11:03.720Z,21.99
2022-08-19T08:12:13.365Z,22.01
2022-08-19T08:13:09.161Z,22.12
2022-08-19T08:14:04.776Z,22.04
2022-08-19T08:15:03.681Z,22.14
2022-08-19T08:16:03.670Z,22.15
2022-08-19T08:17:03.646Z,22.19
2022-08-19T08:18:04.638Z,22.20
2022-08-19T08:19:03.729Z,22.26
2022-08-19T08:20:04.624Z,22.23
2022-08-19T08:21:03.633Z,22.33
2022-08-19T08:22:03.623Z,22.27
2022-08-19T08:23:03.594Z,22.33
2022-08-19T08:24:03.613Z,22.29
2022-08-19T08:25:03.595Z,22.38
2022-08-19T08:26:03.561Z,22.38
2022-08-19T08:27:03.539Z,22.52
2022-08-19T08:28:04.533Z,22.52
2022-08-19T08:29:11.508Z,22.54
2022-08-19T08:30:04.541Z,22.56
2022-08-19T08:31:03.533Z,22.49
2022-08-19T08:32:04.504Z,22.49
2022-08-19T08:33:04.552Z,22.42
2022-08-19T08:34:03.469Z,22.41
2022-08-19T08:35:03.461Z,22.46
2022-08-19T08:36:03.797Z,22.51
2022-08-19T08:37:03.435Z,22.51
2022-08-19T08:38:03.427Z,22.52
2022-08-19T08:39:03.429Z,22.46
2022-08-19T08:40:03.432Z,22.42
2022-08-19T08:41:03.400Z,22.30
2022-08-19T08:42:10.367Z,22.41
2022-08-19T08:44:04.391Z,22.41
2022-08-19T08:45:03.382Z,22.41
2022-08-19T08:46:03.348Z,22.54
2022-08-19T08:47:03.335Z,22.49
2022-08-19T08:48:03.315Z,22.56
2022-08-19T08:49:03.349Z,22.56
2022-08-19T08:50:03.312Z,22.66
2022-08-19T08:51:03.291Z,22.60
2022-08-19T08:52:03.280Z,22.60
2022-08-19T08:53:03.270Z,22.61
2022-08-19T08:54:03.280Z,22.60
2022-08-19T08:55:03.290Z,22.70
2022-08-19T08:56:04.230Z,22.69
2022-08-19T08:57:03.218Z,22.74
2022-08-19T08:58:03.226Z,22.79
2022-08-19T08:59:03.209Z,22.89
2022-08-19T09:00:03.219Z,22.85
2022-08-19T09:01:03.192Z,22.84
2022-08-19T09:02:03.171Z,22.89
2022-08-19T09:03:03.183Z,22.89
2022-08-19T09:04:03.163Z,22.93
2022-08-19T09:05:03.153Z,22.99
2022-08-19T09:06:03.160Z,23.09
2022-08-19T16:12:24.814Z,27.40
